createdAt,value
2017-07-23T00:01:12.344Z,19.63
2017-07-23T00:03:41.023Z,10.73
2017-07-23T00:06:09.611Z,11.90
2017-07-23T00:08:38.606Z,12.73
2017-07-23T00:11:07.070Z,10.23
2017-07-23T00:13:35.652Z,8.47
2017-07-23T00:16:05.406Z,10.27
2017-07-23T00:18:36.426Z,10.10
2017-07-23T00:21:05.270Z,11.27
2017-07-23T00:23:33.789Z,10.60
2017-07-23T00:26:03.246Z,9.00
2017-07-23T00:28:32.723Z,8.00
2017-07-23T00:31:01.961Z,10.03
2017-07-23T00:33:30.550Z,9.97
2017-07-23T00:35:59.408Z,10.70
2017-07-23T00:38:28.864Z,8.23
2017-07-23T00:40:58.466Z,10.17
2017-07-23T00:43:27.957Z,8.53
2017-07-23T00:45:56.798Z,9.03
2017-07-23T00:48:26.793Z,8.23
2017-07-23T00:50:56.172Z,11.53
2017-07-23T00:53:25.062Z,9.17
2017-07-23T00:55:53.700Z,8.33
2017-07-23T00:58:22.425Z,8.13
2017-07-23T01:00:51.274Z,6.93
2017-07-23T01:03:20.488Z,7.70
2017-07-23T01:05:49.797Z,5.93
2017-07-23T01:08:18.461Z,6.60
2017-07-23T01:10:48.207Z,8.53
2017-07-23T01:13:17.676Z,7.60
2017-07-23T01:15:47.366Z,8.13
2017-07-23T01:18:16.339Z,8.53
2017-07-23T01:20:45.800Z,8.60
2017-07-23T01:23:15.297Z,9.13
2017-07-23T01:25:44.253Z,8.37
2017-07-23T01:28:13.901Z,8.23
2017-07-23T01:30:43.643Z,7.87
2017-07-23T01:33:12.693Z,9.03
2017-07-23T01:35:42.182Z,7.40
2017-07-23T01:38:10.699Z,10.90
2017-07-23T01:40:40.417Z,9.40
2017-07-23T01:43:09.884Z,9.30
2017-07-23T01:45:38.546Z,16.63
2017-07-23T01:48:07.837Z,9.63
2017-07-23T01:50:37.301Z,12.10
2017-07-23T01:53:07.546Z,9.93
2017-07-23T01:55:35.465Z,10.57
2017-07-23T01:58:04.068Z,9.47
2017-07-23T02:00:33.253Z,11.80
2017-07-23T02:03:03.709Z,15.10
2017-07-23T02:05:34.609Z,12.93
2017-07-23T02:08:04.147Z,9.27
2017-07-23T02:10:32.615Z,11.77
2017-07-23T02:13:02.582Z,9.87
2017-07-23T02:15:31.678Z,13.23
2017-07-23T02:18:00.952Z,11.30
2017-07-23T02:20:31.093Z,12.57
2017-07-23T02:22:59.817Z,13.10
2017-07-23T02:25:29.053Z,12.23
2017-07-23T02:27:58.449Z,10.30
2017-07-23T02:30:27.498Z,10.80
2017-07-23T02:32:57.772Z,10.93
2017-07-23T02:35:27.758Z,12.97
2017-07-23T02:37:57.048Z,11.17
2017-07-23T02:40:26.979Z,14.57
2017-07-23T02:42:55.851Z,12.17
2017-07-23T02:45:24.346Z,12.70
2017-07-23T02:47:54.644Z,10.70
2017-07-23T02:50:23.621Z,11.83
2017-07-23T02:52:52.332Z,12.67
2017-07-23T02:55:21.456Z,11.23
2017-07-23T02:57:55.011Z,11.10
2017-07-23T03:00:24.834Z,10.80
2017-07-23T03:02:53.717Z,11.50
2017-07-23T03:05:22.571Z,10.70
2017-07-23T03:07:51.650Z,9.80
2017-07-23T03:10:21.050Z,10.60
2017-07-23T03:12:49.598Z,10.50
2017-07-23T03:15:19.614Z,11.17
2017-07-23T03:17:55.398Z,12.67
2017-07-23T03:20:27.438Z,11.50
2017-07-23T03:22:55.655Z,9.70
2017-07-23T03:25:25.035Z,9.83
2017-07-23T03:27:55.032Z,11.90
2017-07-23T03:30:24.469Z,11.80
2017-07-23T03:32:53.952Z,11.70
2017-07-23T03:35:23.620Z,11.03
2017-07-23T03:37:53.295Z,11.57
2017-07-23T03:40:22.370Z,13.27
2017-07-23T03:42:52.163Z,12.83
2017-07-23T03:45:21.454Z,12.60
2017-07-23T03:47:50.882Z,12.50
2017-07-23T03:50:19.963Z,11.33
2017-07-23T03:52:48.617Z,10.20
2017-07-23T03:55:17.683Z,10.63
2017-07-23T03:57:47.252Z,10.90
2017-07-23T04:00:16.707Z,12.87
2017-07-23T04:02:45.761Z,9.33
2017-07-23T04:05:15.039Z,10.40
2017-07-23T04:07:43.698Z,11.40
2017-07-23T04:10:12.928Z,7.77
2017-07-23T04:12:42.396Z,10.53
2017-07-23T04:15:11.439Z,9.97
2017-07-23T04:17:40.657Z,9.90
2017-07-23T04:20:10.260Z,10.70
2017-07-23T04:22:38.779Z,15.10
2017-07-23T04:25:07.682Z,10.70
2017-07-23T04:27:38.102Z,12.33
2017-07-23T04:30:06.638Z,11.50
2017-07-23T04:32:35.145Z,9.20
2017-07-23T04:35:04.638Z,10.33
2017-07-23T04:37:33.104Z,10.60
2017-07-23T04:40:02.392Z,8.30
2017-07-23T04:42:31.333Z,9.73
2017-07-23T04:44:59.779Z,10.40
2017-07-23T04:47:29.745Z,9.90
2017-07-23T04:49:58.690Z,10.93
2017-07-23T04:52:27.217Z,11.57
2017-07-23T04:54:55.704Z,11.87
2017-07-23T04:57:25.295Z,13.40
2017-07-23T04:59:53.978Z,12.93
2017-07-23T05:02:23.326Z,14.07
2017-07-23T05:04:54.308Z,14.60
2017-07-23T05:07:30.819Z,12.40
2017-07-23T05:10:06.531Z,14.30
2017-07-23T05:12:35.641Z,11.10
2017-07-23T05:15:05.250Z,11.03
2017-07-23T05:17:33.763Z,8.50
2017-07-23T05:20:02.685Z,11.63
2017-07-23T05:22:31.158Z,10.57
2017-07-23T05:25:08.283Z,10.83
2017-07-23T05:27:37.598Z,12.00
2017-07-23T05:30:08.744Z,11.77
2017-07-23T05:32:37.473Z,8.90
2017-07-23T05:35:12.554Z,10.93
2017-07-23T05:37:42.384Z,11.63
2017-07-23T05:40:18.125Z,17.10
2017-07-23T05:42:48.321Z,10.40
2017-07-23T05:45:17.990Z,12.60
2017-07-23T05:47:47.470Z,10.83
2017-07-23T05:50:19.729Z,11.43
2017-07-23T05:52:49.139Z,9.27
2017-07-23T05:55:18.797Z,8.00
2017-07-23T05:57:48.040Z,8.47
2017-07-23T06:00:16.929Z,6.00
2017-07-23T06:02:45.412Z,6.40
2017-07-23T06:05:14.061Z,6.53
2017-07-23T06:07:42.561Z,6.13
2017-07-23T06:10:11.441Z,6.00
2017-07-23T06:12:41.641Z,5.30
2017-07-23T06:15:11.216Z,6.40
2017-07-23T06:17:40.499Z,7.33
2017-07-23T06:20:09.370Z,7.50
2017-07-23T06:22:39.666Z,6.47
2017-07-23T06:25:08.725Z,6.27
2017-07-23T06:27:39.253Z,7.40
2017-07-23T06:30:08.522Z,7.33
2017-07-23T06:32:38.788Z,7.27
2017-07-23T06:35:08.625Z,5.63
2017-07-23T06:37:38.632Z,6.47
2017-07-23T06:40:07.101Z,6.07
2017-07-23T06:42:35.966Z,6.33
2017-07-23T06:45:06.016Z,6.57
2017-07-23T06:47:34.481Z,7.10
2017-07-23T06:50:04.098Z,5.30
2017-07-23T06:52:33.167Z,7.10
2017-07-23T06:55:02.025Z,5.73
2017-07-23T06:57:31.076Z,6.67
2017-07-23T07:00:02.590Z,5.53
2017-07-23T07:02:31.138Z,6.90
2017-07-23T07:05:00.811Z,5.23
2017-07-23T07:07:29.284Z,9.43
2017-07-23T07:09:57.757Z,5.50
2017-07-23T07:12:27.296Z,6.07
2017-07-23T07:14:56.535Z,5.43
2017-07-23T07:17:25.441Z,11.10
2017-07-23T07:19:55.435Z,4.50
2017-07-23T07:22:23.925Z,7.03
2017-07-23T07:24:53.212Z,4.60
2017-07-23T07:27:22.093Z,4.90
2017-07-23T07:29:50.973Z,5.70
2017-07-23T07:32:21.046Z,5.30
2017-07-23T07:34:50.256Z,5.30
2017-07-23T07:37:18.715Z,3.90
2017-07-23T07:39:48.113Z,4.30
2017-07-23T07:42:17.381Z,4.63
2017-07-23T07:44:47.334Z,5.30
2017-07-23T07:47:16.615Z,4.57
2017-07-23T07:49:45.095Z,5.30
2017-07-23T07:52:14.612Z,4.33
2017-07-23T07:54:43.078Z,4.13
2017-07-23T07:57:13.176Z,4.87
2017-07-23T07:59:43.242Z,4.40
2017-07-23T08:02:11.696Z,4.00
2017-07-23T08:04:41.606Z,5.67
2017-07-23T08:07:10.900Z,4.80
2017-07-23T08:09:40.857Z,5.57
2017-07-23T08:12:10.870Z,6.60
2017-07-23T08:14:40.528Z,5.57
2017-07-23T08:17:10.559Z,5.77
2017-07-23T08:19:40.289Z,5.10
2017-07-23T08:22:09.122Z,4.80
2017-07-23T08:24:37.972Z,5.93
2017-07-23T08:27:07.456Z,4.40
2017-07-23T08:29:36.683Z,5.70
2017-07-23T08:32:06.699Z,5.90
2017-07-23T08:34:36.793Z,6.07
2017-07-23T08:37:07.682Z,5.53
2017-07-23T08:39:37.138Z,5.37
2017-07-23T08:42:07.184Z,4.60
2017-07-23T08:44:36.640Z,6.27
2017-07-23T08:47:05.509Z,6.13
2017-07-23T08:49:35.379Z,5.57
2017-07-23T08:52:04.257Z,3.80
2017-07-23T08:54:32.934Z,7.10
2017-07-23T08:57:02.485Z,4.10
2017-07-23T08:59:31.793Z,4.30
2017-07-23T09:02:01.023Z,4.80
2017-07-23T09:04:30.253Z,6.60
2017-07-23T09:06:59.772Z,4.50
2017-07-23T09:09:28.727Z,4.40
2017-07-23T09:11:58.304Z,5.70
2017-07-23T09:14:27.023Z,5.23
2017-07-23T09:16:57.595Z,4.30
2017-07-23T09:19:26.921Z,4.97
2017-07-23T09:21:56.725Z,5.50
2017-07-23T09:24:26.692Z,4.40
2017-07-23T09:26:56.292Z,5.60
2017-07-23T09:29:26.032Z,4.20
2017-07-23T09:31:55.127Z,4.60
2017-07-23T09:34:24.366Z,5.47
2017-07-23T09:36:53.211Z,4.17
2017-07-23T09:39:22.305Z,4.03
2017-07-23T09:41:51.636Z,6.10
2017-07-23T09:44:20.943Z,3.53
2017-07-23T09:46:49.398Z,4.27
2017-07-23T09:49:17.893Z,3.83
2017-07-23T09:51:47.666Z,6.17
2017-07-23T09:54:16.114Z,4.67
2017-07-23T09:56:44.576Z,3.70
2017-07-23T09:59:13.469Z,4.10
2017-07-23T10:01:42.326Z,6.60
2017-07-23T10:04:11.170Z,4.47
2017-07-23T10:06:40.067Z,4.27
2017-07-23T10:09:08.938Z,4.33
2017-07-23T10:11:37.809Z,4.27
2017-07-23T10:14:07.964Z,3.13
2017-07-23T10:16:36.425Z,3.57
2017-07-23T10:19:05.268Z,3.97
2017-07-23T10:21:34.261Z,4.63
2017-07-23T10:24:02.890Z,3.37
2017-07-23T10:26:32.462Z,4.30
2017-07-23T10:29:01.741Z,4.20
2017-07-23T10:31:30.277Z,5.47
2017-07-23T10:33:59.988Z,3.30
2017-07-23T10:36:28.465Z,3.57
2017-07-23T10:38:57.420Z,3.97
2017-07-23T10:41:26.908Z,3.87
2017-07-23T10:43:56.537Z,6.47
2017-07-23T10:46:25.405Z,3.80
2017-07-23T10:48:54.264Z,3.83
2017-07-23T10:51:23.535Z,4.47
2017-07-23T10:53:52.956Z,3.60
2017-07-23T10:56:22.446Z,3.73
2017-07-23T10:58:51.898Z,3.60
2017-07-23T11:01:20.676Z,3.33
2017-07-23T11:03:50.264Z,3.20
2017-07-23T11:06:19.252Z,3.40
2017-07-23T11:08:49.369Z,3.60
2017-07-23T11:11:18.609Z,5.03
2017-07-23T11:13:48.496Z,3.07
2017-07-23T11:16:17.181Z,2.70
2017-07-23T11:18:47.198Z,5.53
2017-07-23T11:21:16.876Z,6.83
2017-07-23T11:23:46.110Z,4.53
2017-07-23T11:26:14.969Z,3.47
2017-07-23T11:28:44.578Z,3.57
2017-07-23T11:31:13.874Z,3.90
2017-07-23T11:33:42.725Z,6.33
2017-07-23T11:36:12.627Z,3.30
2017-07-23T11:38:43.228Z,3.87
2017-07-23T11:41:11.688Z,4.13
2017-07-23T11:43:40.523Z,3.70
2017-07-23T11:46:09.009Z,2.80
2017-07-23T11:48:38.228Z,3.30
2017-07-23T11:51:07.841Z,5.23
2017-07-23T11:53:36.373Z,3.43
2017-07-23T11:56:05.246Z,3.03
2017-07-23T11:58:33.842Z,5.93
2017-07-23T12:01:02.313Z,4.43
2017-07-23T12:03:32.543Z,4.97
2017-07-23T12:06:01.982Z,4.20
2017-07-23T12:08:30.479Z,5.80
2017-07-23T12:10:59.407Z,4.67
2017-07-23T12:13:28.320Z,5.90
2017-07-23T12:15:57.204Z,3.30
2017-07-23T12:18:26.280Z,4.53
2017-07-23T12:20:55.226Z,3.07
2017-07-23T12:23:24.812Z,5.17
2017-07-23T12:25:54.650Z,2.30
2017-07-23T12:28:23.238Z,5.97
2017-07-23T12:30:52.289Z,3.20
2017-07-23T12:33:22.055Z,5.07
2017-07-23T12:35:50.926Z,2.60
2017-07-23T12:38:20.400Z,4.30
2017-07-23T12:40:50.717Z,4.00
2017-07-23T12:43:19.702Z,4.37
2017-07-23T12:45:49.698Z,2.77
2017-07-23T12:48:22.179Z,4.17
2017-07-23T12:50:51.858Z,2.40
2017-07-23T12:53:21.960Z,5.23
2017-07-23T12:55:51.337Z,3.00
2017-07-23T12:58:20.586Z,3.30
2017-07-23T13:00:50.247Z,2.47
2017-07-23T13:03:20.781Z,2.83
2017-07-23T13:05:49.393Z,3.17
2017-07-23T13:08:18.377Z,3.30
2017-07-23T13:10:46.897Z,3.23
2017-07-23T13:13:16.532Z,4.40
2017-07-23T13:15:45.833Z,4.30
2017-07-23T13:18:15.997Z,3.60
2017-07-23T13:20:45.427Z,3.30
2017-07-23T13:23:14.520Z,4.00
2017-07-23T13:25:43.791Z,3.67
2017-07-23T13:28:12.729Z,4.00
2017-07-23T13:30:47.584Z,4.00
2017-07-23T13:33:16.879Z,4.30
2017-07-23T13:35:46.390Z,4.17
2017-07-23T13:38:14.876Z,3.00
2017-07-23T13:40:43.817Z,3.00
2017-07-23T13:43:12.712Z,4.17
2017-07-23T13:45:41.634Z,4.30
2017-07-23T13:48:10.754Z,3.60
2017-07-23T13:50:39.280Z,3.87
2017-07-23T13:53:08.194Z,3.23
2017-07-23T13:55:37.177Z,4.03
2017-07-23T13:58:06.637Z,3.43
2017-07-23T14:00:35.658Z,4.37
2017-07-23T14:03:04.601Z,3.40
2017-07-23T14:05:33.532Z,3.77
2017-07-23T14:08:02.152Z,4.23
2017-07-23T14:10:31.273Z,3.80
2017-07-23T14:13:00.218Z,3.23
2017-07-23T14:15:29.074Z,3.03
2017-07-23T14:17:58.923Z,3.53
2017-07-23T14:20:27.479Z,3.87
2017-07-23T14:22:58.975Z,2.63
2017-07-23T14:25:27.508Z,4.37
2017-07-23T14:27:56.932Z,3.90
2017-07-23T14:30:27.458Z,4.20
2017-07-23T14:32:56.702Z,3.87
2017-07-23T14:35:25.643Z,5.80
2017-07-23T14:37:54.317Z,4.43
2017-07-23T14:40:22.885Z,4.07
2017-07-23T14:42:51.628Z,2.80
2017-07-23T14:45:21.813Z,3.63
2017-07-23T14:47:51.179Z,4.23
2017-07-23T14:50:20.618Z,3.80
2017-07-23T14:52:49.139Z,3.23
2017-07-23T14:55:17.698Z,3.60
2017-07-23T14:57:47.723Z,4.17
2017-07-23T15:00:17.432Z,6.07
2017-07-23T15:02:46.330Z,4.93
2017-07-23T15:05:15.257Z,3.77
2017-07-23T15:07:44.187Z,4.30
2017-07-23T15:10:12.707Z,3.47
2017-07-23T15:12:42.814Z,4.60
2017-07-23T15:15:11.672Z,4.63
2017-07-23T15:17:40.571Z,5.47
2017-07-23T15:20:09.640Z,3.80
2017-07-23T15:22:39.098Z,4.53
2017-07-23T15:25:07.535Z,4.20
2017-07-23T15:27:35.994Z,5.80
2017-07-23T15:30:05.620Z,5.10
2017-07-23T15:32:34.075Z,4.10
2017-07-23T15:35:02.520Z,3.73
2017-07-23T15:37:31.755Z,4.87
2017-07-23T15:40:00.597Z,5.10
2017-07-23T15:42:30.062Z,2.77
2017-07-23T15:44:58.903Z,3.83
2017-07-23T15:47:27.401Z,4.37
2017-07-23T15:49:56.995Z,4.70
2017-07-23T15:52:26.992Z,5.10
2017-07-23T15:54:56.503Z,5.73
2017-07-23T15:57:26.069Z,3.23
2017-07-23T15:59:55.742Z,3.10
2017-07-23T16:02:24.604Z,3.73
2017-07-23T16:04:53.460Z,4.43
2017-07-23T16:07:22.716Z,4.80
2017-07-23T16:09:51.165Z,3.77
2017-07-23T16:12:20.247Z,4.20
2017-07-23T16:14:49.135Z,3.77
2017-07-23T16:17:17.592Z,4.43
2017-07-23T16:19:47.074Z,4.83
2017-07-23T16:22:16.284Z,5.43
2017-07-23T16:24:44.787Z,4.67
2017-07-23T16:27:14.432Z,3.43
2017-07-23T16:29:44.809Z,5.33
2017-07-23T16:32:14.347Z,3.73
2017-07-23T16:34:43.891Z,4.83
2017-07-23T16:37:13.104Z,3.63
2017-07-23T16:39:41.549Z,3.90
2017-07-23T16:42:11.209Z,5.07
2017-07-23T16:44:40.795Z,4.40
2017-07-23T16:47:10.385Z,3.57
2017-07-23T16:49:39.921Z,4.13
2017-07-23T16:52:08.370Z,5.60
2017-07-23T16:54:37.787Z,3.87
2017-07-23T16:57:06.676Z,3.37
2017-07-23T16:59:36.124Z,4.23
2017-07-23T17:02:05.622Z,6.43
2017-07-23T17:04:34.590Z,3.67
2017-07-23T17:07:03.445Z,3.17
2017-07-23T17:09:32.298Z,5.47
2017-07-23T17:12:01.187Z,3.10
2017-07-23T17:14:31.112Z,4.73
2017-07-23T17:16:59.394Z,3.00
2017-07-23T17:19:29.344Z,4.80
2017-07-23T17:21:59.939Z,4.77
2017-07-23T17:24:29.375Z,5.57
2017-07-23T17:26:58.212Z,3.03
2017-07-23T17:29:26.730Z,4.80
2017-07-23T17:31:56.163Z,4.93
2017-07-23T17:34:24.640Z,5.10
2017-07-23T17:36:53.535Z,3.20
2017-07-23T17:39:22.373Z,3.90
2017-07-23T17:41:51.970Z,4.77
2017-07-23T17:44:21.180Z,3.40
2017-07-23T17:46:50.411Z,5.10
2017-07-23T17:49:19.965Z,4.00
2017-07-23T17:51:48.419Z,4.37
2017-07-23T17:57:10.226Z,4.10
2017-07-23T17:59:39.821Z,3.47
2017-07-23T18:02:08.868Z,3.23
2017-07-23T18:04:38.507Z,3.50
2017-07-23T18:07:08.455Z,3.80
2017-07-23T18:09:37.675Z,3.47
2017-07-23T18:12:08.114Z,3.37
2017-07-23T18:14:37.166Z,4.37
2017-07-23T18:17:05.782Z,4.00
2017-07-23T18:19:35.760Z,4.50
2017-07-23T18:22:04.589Z,3.90
2017-07-23T18:24:33.486Z,3.87
2017-07-23T18:27:01.998Z,4.83
2017-07-23T18:29:31.957Z,4.30
2017-07-23T18:32:01.192Z,3.80
2017-07-23T18:34:30.842Z,4.27
2017-07-23T18:37:00.443Z,4.63
2017-07-23T18:39:29.978Z,6.53
2017-07-23T18:41:59.968Z,4.40
2017-07-23T18:44:29.936Z,3.63
2017-07-23T18:46:59.889Z,4.80
2017-07-23T18:49:29.509Z,3.80
2017-07-23T18:51:58.012Z,4.73
2017-07-23T18:54:27.998Z,2.93
2017-07-23T18:56:57.446Z,4.67
2017-07-23T18:59:25.880Z,4.73
2017-07-23T19:01:54.772Z,5.20
2017-07-23T19:04:23.691Z,5.37
2017-07-23T19:06:52.908Z,4.50
2017-07-23T19:09:21.455Z,4.60
2017-07-23T19:11:49.922Z,7.03
2017-07-23T19:14:18.800Z,4.20
2017-07-23T19:16:48.272Z,5.37
2017-07-23T19:19:17.744Z,4.43
2017-07-23T19:21:47.206Z,7.43
2017-07-23T19:24:16.054Z,4.77
2017-07-23T19:26:44.923Z,4.30
2017-07-23T19:29:14.508Z,5.77
2017-07-23T19:31:43.711Z,10.20
2017-07-23T19:34:12.617Z,6.10
2017-07-23T19:36:41.442Z,4.87
2017-07-23T19:39:10.291Z,4.97
2017-07-23T19:41:39.784Z,4.40
2017-07-23T19:44:08.267Z,4.20
2017-07-23T19:46:37.156Z,4.50
2017-07-23T19:49:05.620Z,5.10
2017-07-23T19:51:35.631Z,4.00
2017-07-23T19:54:04.070Z,4.60
2017-07-23T19:56:34.033Z,6.17
2017-07-23T19:59:04.139Z,5.33
2017-07-23T20:01:34.100Z,4.20
2017-07-23T20:04:02.587Z,4.97
2017-07-23T20:06:31.739Z,3.83
2017-07-23T20:09:01.202Z,4.63
2017-07-23T20:11:30.779Z,4.10
2017-07-23T20:13:59.257Z,4.90
2017-07-23T20:16:28.541Z,3.70
2017-07-23T20:18:57.400Z,3.30
2017-07-23T20:21:27.364Z,7.73
2017-07-23T20:23:56.807Z,3.73
2017-07-23T20:26:25.882Z,5.50
2017-07-23T20:28:55.461Z,4.80
2017-07-23T20:31:25.494Z,4.00
2017-07-23T20:33:54.713Z,5.10
2017-07-23T20:36:23.568Z,4.70
2017-07-23T20:38:53.587Z,4.70
2017-07-23T20:41:23.204Z,4.83
2017-07-23T20:43:52.549Z,5.97
2017-07-23T20:46:22.513Z,6.93
2017-07-23T20:48:51.425Z,6.23
2017-07-23T20:51:19.884Z,5.27
2017-07-23T20:53:49.298Z,5.57
2017-07-23T20:56:17.791Z,3.60
2017-07-23T20:58:47.457Z,4.77
2017-07-23T21:01:16.973Z,5.43
2017-07-23T21:03:46.675Z,5.43
2017-07-23T21:06:15.156Z,4.80
2017-07-23T21:08:44.036Z,4.20
2017-07-23T21:11:12.934Z,5.47
2017-07-23T21:13:42.290Z,5.17
2017-07-23T21:16:10.740Z,3.80
2017-07-23T21:18:39.234Z,5.80
2017-07-23T21:21:08.931Z,4.47
2017-07-23T21:23:38.384Z,4.00
2017-07-23T21:26:06.891Z,5.00
2017-07-23T21:28:35.758Z,4.40
2017-07-23T21:31:05.717Z,6.20
2017-07-23T21:33:34.233Z,6.97
2017-07-23T21:36:02.746Z,6.27
2017-07-23T21:38:32.324Z,6.83
2017-07-23T21:41:00.812Z,5.43
2017-07-23T21:43:29.694Z,7.23
2017-07-23T21:45:59.687Z,6.50
2017-07-23T21:48:28.541Z,4.13
2017-07-23T21:50:57.040Z,6.10
2017-07-23T21:53:26.713Z,5.97
2017-07-23T21:55:56.719Z,6.53
2017-07-23T21:58:26.154Z,6.00
2017-07-23T22:00:55.154Z,6.00
2017-07-23T22:03:25.105Z,6.30
2017-07-23T22:05:54.114Z,7.10
2017-07-23T22:08:23.167Z,5.37
2017-07-23T22:10:52.509Z,4.10
2017-07-23T22:13:21.472Z,5.03
2017-07-23T22:15:50.695Z,5.93
2017-07-23T22:18:20.118Z,5.13
2017-07-23T22:20:49.393Z,7.10
2017-07-23T22:23:17.855Z,4.67
2017-07-23T22:25:47.836Z,7.27
2017-07-23T22:28:18.464Z,4.60
2017-07-23T22:30:48.472Z,3.83
2017-07-23T22:33:17.323Z,5.03
2017-07-23T22:35:46.182Z,5.00
2017-07-23T22:38:17.486Z,4.30
2017-07-23T22:40:45.984Z,6.00
2017-07-23T22:43:15.221Z,5.57
2017-07-23T22:45:43.715Z,8.73
2017-07-23T22:48:13.166Z,4.73
2017-07-23T22:50:42.476Z,3.83
2017-07-23T22:53:11.191Z,5.07
2017-07-23T22:55:40.415Z,5.07
2017-07-23T22:58:08.859Z,5.17
2017-07-23T23:00:38.166Z,6.30
2017-07-23T23:03:08.040Z,5.90
2017-07-23T23:05:37.504Z,6.20
2017-07-23T23:08:06.979Z,6.00
2017-07-23T23:10:36.442Z,5.67
2017-07-23T23:13:06.412Z,5.23
2017-07-23T23:15:36.092Z,5.40
2017-07-23T23:18:05.601Z,6.43
2017-07-23T23:20:34.803Z,6.63
2017-07-23T23:23:03.263Z,6.10
2017-07-23T23:25:32.855Z,7.10
2017-07-23T23:28:03.356Z,6.40
2017-07-23T23:30:32.936Z,5.63
2017-07-23T23:33:01.803Z,7.40
2017-07-23T23:35:30.266Z,6.27
2017-07-23T23:38:00.251Z,4.70
2017-07-23T23:40:28.733Z,7.23
2017-07-23T23:42:57.187Z,6.13
2017-07-23T23:45:25.814Z,5.90
2017-07-23T23:47:54.679Z,7.70
2017-07-23T23:50:23.980Z,7.80
2017-07-23T23:52:52.432Z,5.57
2017-07-23T23:55:20.881Z,8.60
2017-07-23T23:57:50.876Z,5.70
